createdAt,value
2023-01-09T00:01:55.429Z,1.83
2023-01-09T00:04:21.835Z,2.10
2023-01-09T00:06:53.925Z,1.80
2023-01-09T00:09:21.692Z,1.85
2023-01-09T00:11:48.707Z,2.20
2023-01-09T00:14:18.909Z,1.95
2023-01-09T00:16:45.491Z,1.90
2023-01-09T00:19:12.053Z,1.85
2023-01-09T00:21:38.453Z,2.20
2023-01-09T00:24:05.228Z,2.00
2023-01-09T00:26:31.635Z,1.60
2023-01-09T00:28:58.297Z,1.70
2023-01-09T00:31:24.720Z,1.90
2023-01-09T00:33:54.098Z,1.73
2023-01-09T00:36:20.529Z,1.50
2023-01-09T00:38:46.922Z,1.55
2023-01-09T00:41:19.103Z,1.40
2023-01-09T00:46:13.801Z,1.35
2023-01-09T00:48:42.095Z,1.60
2023-01-09T00:51:08.513Z,1.38
2023-01-09T00:53:37.771Z,1.27
2023-01-09T00:56:07.386Z,1.60
2023-01-09T00:58:34.365Z,1.38
2023-01-09T01:01:01.171Z,1.20
2023-01-09T01:03:27.832Z,1.20
2023-01-09T01:06:12.708Z,1.00
2023-01-09T01:08:39.114Z,1.15
2023-01-09T01:11:10.051Z,1.00
2023-01-09T01:13:37.715Z,1.10
2023-01-09T01:16:05.692Z,1.20
2023-01-09T01:18:32.124Z,1.02
2023-01-09T01:20:58.611Z,1.10
2023-01-09T01:23:25.128Z,1.15
2023-01-09T01:25:51.657Z,1.40
2023-01-09T01:28:19.158Z,1.00
2023-01-09T01:30:45.633Z,0.93
2023-01-09T01:33:12.076Z,1.17
2023-01-09T01:35:38.663Z,1.10
2023-01-09T01:38:05.192Z,2.55
2023-01-09T01:40:31.578Z,1.30
2023-01-09T01:42:58.732Z,1.20
2023-01-09T01:45:29.516Z,1.10
2023-01-09T01:48:08.001Z,1.30
2023-01-09T01:50:38.578Z,0.80
2023-01-09T01:53:33.324Z,0.88
2023-01-09T01:56:06.465Z,0.90
2023-01-09T01:58:34.719Z,1.00
2023-01-09T02:01:01.315Z,0.90
2023-01-09T02:03:28.502Z,1.08
2023-01-09T02:05:54.896Z,1.20
2023-01-09T02:08:21.789Z,1.10
2023-01-09T02:10:49.154Z,1.40
2023-01-09T02:13:15.615Z,1.23
2023-01-09T02:16:03.214Z,1.10
2023-01-09T02:18:32.120Z,2.17
2023-01-09T02:21:03.348Z,1.10
2023-01-09T02:23:48.358Z,1.40
2023-01-09T02:27:13.214Z,1.55
2023-01-09T02:30:16.345Z,1.27
2023-01-09T02:32:51.462Z,1.52
2023-01-09T02:35:27.779Z,1.48
2023-01-09T02:38:16.159Z,1.60
2023-01-09T02:41:21.449Z,1.50
2023-01-09T02:43:47.835Z,1.60
2023-01-09T02:46:19.910Z,1.70
2023-01-09T02:48:46.692Z,1.90
2023-01-09T02:51:22.036Z,3.13
2023-01-09T02:54:13.647Z,1.80
2023-01-09T02:57:00.917Z,1.40
2023-01-09T02:59:29.494Z,1.73
2023-01-09T03:02:20.791Z,1.50
2023-01-09T03:04:57.578Z,1.35
2023-01-09T03:07:30.980Z,1.25
2023-01-09T03:10:15.660Z,1.50
2023-01-09T03:12:43.118Z,1.40
2023-01-09T03:15:12.295Z,1.58
2023-01-09T03:17:42.480Z,1.33
2023-01-09T03:20:10.523Z,1.50
2023-01-09T03:22:39.891Z,1.30
2023-01-09T03:25:06.542Z,1.50
2023-01-09T03:27:32.919Z,1.50
2023-01-09T03:29:59.315Z,1.75
2023-01-09T03:32:27.671Z,2.10
2023-01-09T03:34:54.118Z,1.90
2023-01-09T03:37:20.476Z,2.58
2023-01-09T03:39:46.885Z,2.35
2023-01-09T03:42:13.258Z,2.03
2023-01-09T03:44:39.631Z,2.10
2023-01-09T03:47:06.069Z,2.13
2023-01-09T03:49:32.452Z,2.70
2023-01-09T03:51:58.837Z,2.08
2023-01-09T03:54:25.270Z,2.58
2023-01-09T03:56:51.757Z,2.63
2023-01-09T03:59:18.578Z,2.42
2023-01-09T04:01:45.138Z,2.20
2023-01-09T04:04:11.681Z,2.55
2023-01-09T04:06:38.118Z,2.75
2023-01-09T04:09:04.541Z,2.20
2023-01-09T04:11:30.911Z,2.78
2023-01-09T04:13:57.289Z,2.60
2023-01-09T04:16:23.687Z,2.88
2023-01-09T04:18:50.094Z,2.70
2023-01-09T04:21:16.512Z,2.58
2023-01-09T04:23:42.919Z,2.70
2023-01-09T04:26:09.279Z,2.47
2023-01-09T04:28:35.640Z,2.53
2023-01-09T04:31:02.595Z,2.85
2023-01-09T04:33:29.411Z,2.55
2023-01-09T04:35:55.961Z,2.50
2023-01-09T04:38:22.781Z,2.50
2023-01-09T04:40:49.446Z,2.22
2023-01-09T04:43:15.793Z,2.85
2023-01-09T04:45:42.187Z,2.30
2023-01-09T04:48:08.585Z,2.42
2023-01-09T04:50:35.038Z,2.90
2023-01-09T04:53:01.654Z,2.60
2023-01-09T04:55:28.037Z,2.40
2023-01-09T04:57:54.413Z,2.30
2023-01-09T05:00:20.845Z,2.40
2023-01-09T05:02:47.216Z,2.13
2023-01-09T05:05:13.657Z,2.35
2023-01-09T05:07:40.451Z,2.80
2023-01-09T05:10:08.076Z,2.72
2023-01-09T05:12:37.279Z,2.47
2023-01-09T05:15:04.839Z,2.65
2023-01-09T05:17:32.234Z,2.67
2023-01-09T05:19:58.663Z,2.55
2023-01-09T05:22:25.019Z,2.40
2023-01-09T05:24:51.414Z,2.40
2023-01-09T05:27:17.792Z,2.30
2023-01-09T05:29:44.280Z,2.88
2023-01-09T05:32:10.750Z,2.78
2023-01-09T05:34:37.199Z,2.40
2023-01-09T05:37:03.572Z,2.53
2023-01-09T05:39:30.043Z,2.33
2023-01-09T05:41:56.444Z,2.80
2023-01-09T05:44:22.820Z,2.45
2023-01-09T05:46:49.205Z,2.50
2023-01-09T05:49:15.806Z,3.00
2023-01-09T05:51:42.161Z,2.70
2023-01-09T05:54:08.544Z,2.80
2023-01-09T05:56:34.954Z,2.83
2023-01-09T05:59:01.405Z,2.83
2023-01-09T06:01:27.915Z,2.30
2023-01-09T06:03:54.386Z,2.75
2023-01-09T06:06:20.784Z,2.80
2023-01-09T06:08:47.161Z,3.05
2023-01-09T06:11:13.549Z,2.22
2023-01-09T06:13:39.925Z,4.13
2023-01-09T06:16:07.094Z,2.45
2023-01-09T06:18:33.561Z,2.00
2023-01-09T06:20:59.968Z,2.47
2023-01-09T06:23:26.339Z,2.20
2023-01-09T06:25:52.735Z,2.33
2023-01-09T06:28:19.090Z,2.75
2023-01-09T06:30:45.465Z,2.65
2023-01-09T06:33:11.827Z,2.10
2023-01-09T06:35:38.206Z,2.28
2023-01-09T06:38:05.150Z,1.88
2023-01-09T06:40:31.563Z,1.85
2023-01-09T06:42:57.925Z,1.80
2023-01-09T06:45:24.451Z,1.52
2023-01-09T06:47:50.847Z,1.70
2023-01-09T06:50:17.614Z,1.80
2023-01-09T06:52:44.015Z,2.17
2023-01-09T06:55:10.411Z,2.05
2023-01-09T06:57:36.918Z,2.05
2023-01-09T07:00:03.863Z,1.65
2023-01-09T07:02:30.323Z,1.80
2023-01-09T07:04:56.747Z,2.63
2023-01-09T07:07:23.405Z,1.88
2023-01-09T07:09:49.982Z,3.28
2023-01-09T07:12:16.497Z,1.77
2023-01-09T07:14:43.097Z,2.83
2023-01-09T07:17:12.367Z,2.15
2023-01-09T07:19:38.816Z,2.08
2023-01-09T07:22:06.211Z,1.80
2023-01-09T07:24:32.707Z,2.20
2023-01-09T07:26:59.092Z,1.92
2023-01-09T07:29:25.484Z,2.20
2023-01-09T07:31:51.894Z,2.42
2023-01-09T07:34:18.357Z,2.10
2023-01-09T07:36:46.686Z,4.18
2023-01-09T07:39:13.559Z,1.98
2023-01-09T07:41:40.454Z,2.10
2023-01-09T07:44:08.988Z,2.35
2023-01-09T07:46:36.741Z,1.60
2023-01-09T07:49:03.267Z,2.75
2023-01-09T07:51:29.685Z,2.78
2023-01-09T07:53:56.146Z,1.90
2023-01-09T07:56:22.543Z,1.80
2023-01-09T07:58:48.893Z,2.00
2023-01-09T08:01:15.843Z,2.72
2023-01-09T08:03:42.263Z,2.25
2023-01-09T08:06:10.148Z,2.10
2023-01-09T08:08:36.540Z,1.75
2023-01-09T08:11:02.930Z,2.28
2023-01-09T08:13:30.112Z,1.50
2023-01-09T08:15:56.582Z,3.17
2023-01-09T08:18:22.993Z,1.80
2023-01-09T08:20:49.415Z,2.03
2023-01-09T08:23:15.835Z,1.70
2023-01-09T08:25:42.198Z,1.70
2023-01-09T08:28:09.296Z,1.85
2023-01-09T08:30:36.285Z,2.33
2023-01-09T08:33:02.646Z,1.95
2023-01-09T08:35:29.112Z,1.55
2023-01-09T08:37:55.510Z,1.58
2023-01-09T08:40:21.912Z,1.70
2023-01-09T08:43:06.835Z,3.83
2023-01-09T08:45:51.470Z,2.20
2023-01-09T08:48:17.885Z,1.50
2023-01-09T08:50:44.540Z,1.70
2023-01-09T08:53:11.520Z,1.88
2023-01-09T08:55:37.978Z,1.80
2023-01-09T08:58:04.388Z,2.05
2023-01-09T09:00:30.747Z,1.30
2023-01-09T09:02:59.217Z,2.08
2023-01-09T09:05:27.278Z,2.33
2023-01-09T09:07:55.658Z,1.70
2023-01-09T09:10:28.235Z,1.85
2023-01-09T09:12:56.662Z,1.55
2023-01-09T09:15:24.145Z,1.60
2023-01-09T09:17:53.546Z,1.60
2023-01-09T09:20:21.244Z,2.33
2023-01-09T09:22:48.108Z,1.70
2023-01-09T09:25:15.442Z,1.85
2023-01-09T09:27:42.174Z,2.17
2023-01-09T09:30:09.691Z,1.55
2023-01-09T09:32:36.214Z,3.60
2023-01-09T09:35:02.797Z,2.30
2023-01-09T09:37:29.184Z,1.60
2023-01-09T09:39:56.788Z,1.90
2023-01-09T09:43:03.715Z,1.83
2023-01-09T09:45:58.620Z,1.98
2023-01-09T09:48:35.985Z,2.10
2023-01-09T09:51:34.706Z,1.85
2023-01-09T09:54:06.205Z,1.52
2023-01-09T09:56:38.167Z,2.22
2023-01-09T09:59:09.167Z,4.07
2023-01-09T10:01:46.383Z,1.70
2023-01-09T10:04:15.453Z,1.90
2023-01-09T10:06:48.686Z,2.88
2023-01-09T10:09:26.152Z,2.88
2023-01-09T10:12:04.038Z,2.53
2023-01-09T10:14:30.838Z,1.92
2023-01-09T10:17:03.382Z,2.40
2023-01-09T10:19:49.038Z,2.10
2023-01-09T10:22:35.435Z,2.50
2023-01-09T10:25:13.958Z,3.08
2023-01-09T10:27:53.314Z,2.28
2023-01-09T10:30:38.237Z,2.03
2023-01-09T10:33:37.074Z,2.60
2023-01-09T10:36:22.042Z,2.28
2023-01-09T10:38:50.940Z,4.57
2023-01-09T10:41:39.212Z,2.28
2023-01-09T10:44:20.609Z,2.90
2023-01-09T10:46:55.441Z,5.22
2023-01-09T10:49:23.678Z,2.97
2023-01-09T10:52:02.061Z,2.38
2023-01-09T10:54:29.037Z,2.55
2023-01-09T10:56:58.444Z,4.53
2023-01-09T10:59:25.116Z,4.25
2023-01-09T11:01:51.573Z,2.80
2023-01-09T11:04:27.037Z,2.72
2023-01-09T11:06:58.744Z,2.80
2023-01-09T11:09:25.114Z,2.95
2023-01-09T11:11:52.744Z,2.40
2023-01-09T11:14:32.884Z,3.10
2023-01-09T11:17:04.009Z,2.45
2023-01-09T11:19:33.138Z,2.38
2023-01-09T11:22:08.281Z,6.00
2023-01-09T11:24:34.950Z,2.97
2023-01-09T11:27:13.602Z,2.10
2023-01-09T11:29:41.035Z,2.10
2023-01-09T11:32:21.194Z,2.20
2023-01-09T11:34:47.907Z,2.40
2023-01-09T11:37:25.691Z,1.88
2023-01-09T11:39:52.459Z,2.63
2023-01-09T11:42:44.170Z,4.38
2023-01-09T11:45:21.867Z,1.90
2023-01-09T11:47:48.260Z,1.60
2023-01-09T11:50:18.017Z,1.90
2023-01-09T11:52:44.582Z,2.00
2023-01-09T11:55:14.246Z,1.70
2023-01-09T11:57:40.712Z,1.90
2023-01-09T12:00:20.759Z,2.15
2023-01-09T12:03:14.233Z,1.67
2023-01-09T12:05:50.668Z,2.83
2023-01-09T12:08:46.533Z,1.52
2023-01-09T12:11:28.445Z,1.50
2023-01-09T12:14:23.864Z,1.90
2023-01-09T12:17:07.282Z,1.80
2023-01-09T12:20:11.308Z,2.00
2023-01-09T12:23:07.938Z,2.22
2023-01-09T12:25:37.190Z,2.00
2023-01-09T12:28:31.159Z,1.90
2023-01-09T12:31:37.902Z,2.10
2023-01-09T12:34:36.147Z,2.92
2023-01-09T12:37:04.698Z,2.35
2023-01-09T12:39:39.681Z,2.72
2023-01-09T12:42:24.110Z,2.42
2023-01-09T12:45:01.541Z,2.67
2023-01-09T12:47:45.423Z,3.80
2023-01-09T12:50:39.388Z,2.55
2023-01-09T12:53:25.739Z,2.92
2023-01-09T12:56:04.387Z,3.22
2023-01-09T12:58:41.554Z,3.30
2023-01-09T13:01:14.468Z,3.60
2023-01-09T13:03:48.000Z,2.90
2023-01-09T13:06:17.432Z,3.65
2023-01-09T13:08:55.595Z,3.03
2023-01-09T13:11:34.397Z,2.72
2023-01-09T13:14:10.187Z,3.10
2023-01-09T13:16:42.005Z,3.22
2023-01-09T13:19:25.806Z,2.90
2023-01-09T13:21:53.559Z,2.60
2023-01-09T13:24:24.977Z,2.67
2023-01-09T13:26:57.185Z,2.72
2023-01-09T13:31:56.059Z,2.40
2023-01-09T13:34:25.129Z,2.40
2023-01-09T13:36:53.746Z,3.30
2023-01-09T13:39:28.520Z,2.55
2023-01-09T13:42:17.712Z,2.58
2023-01-09T13:44:44.913Z,3.10
2023-01-09T13:47:17.544Z,3.33
2023-01-09T13:49:43.898Z,2.95
2023-01-09T13:52:36.518Z,3.40
2023-01-09T13:57:42.234Z,3.20
2023-01-09T14:00:14.719Z,3.53
2023-01-09T14:02:41.240Z,3.00
2023-01-09T14:05:36.559Z,2.88
2023-01-09T14:08:12.439Z,2.80
2023-01-09T14:10:44.901Z,3.13
2023-01-09T14:13:20.389Z,2.70
2023-01-09T14:15:49.426Z,2.85
2023-01-09T14:18:18.711Z,3.25
2023-01-09T14:20:52.644Z,3.13
2023-01-09T14:23:45.551Z,3.88
2023-01-09T14:26:17.979Z,3.88
2023-01-09T14:28:44.721Z,3.70
2023-01-09T14:31:27.553Z,3.80
2023-01-09T14:34:34.205Z,3.97
2023-01-09T14:37:02.220Z,3.97
2023-01-09T14:39:31.526Z,3.28
2023-01-09T14:42:06.354Z,3.38
2023-01-09T14:44:46.880Z,3.72
2023-01-09T14:47:17.250Z,3.55
2023-01-09T14:49:47.073Z,3.40
2023-01-09T14:52:21.356Z,3.83
2023-01-09T14:54:48.567Z,3.38
2023-01-09T14:57:25.335Z,3.72
2023-01-09T15:00:06.037Z,3.60
2023-01-09T15:02:35.442Z,3.67
2023-01-09T15:05:10.743Z,4.72
2023-01-09T15:07:45.015Z,3.50
2023-01-09T15:10:21.109Z,4.03
2023-01-09T15:12:49.329Z,4.95
2023-01-09T15:15:16.812Z,4.20
2023-01-09T15:17:45.591Z,4.05
2023-01-09T15:20:22.060Z,4.47
2023-01-09T15:22:54.609Z,4.32
2023-01-09T15:25:33.926Z,4.60
2023-01-09T15:28:23.188Z,4.93
2023-01-09T15:30:55.349Z,5.20
2023-01-09T15:35:50.109Z,5.30
2023-01-09T15:38:21.002Z,5.57
2023-01-09T15:40:55.177Z,5.35
2023-01-09T15:43:21.725Z,5.70
2023-01-09T15:45:48.444Z,5.70
2023-01-09T15:48:29.192Z,5.95
2023-01-09T15:50:58.375Z,5.45
2023-01-09T15:53:27.114Z,5.63
2023-01-09T15:56:02.548Z,5.45
2023-01-09T15:58:32.939Z,5.68
2023-01-09T16:01:01.496Z,5.88
2023-01-09T16:03:28.742Z,6.35
2023-01-09T16:05:57.940Z,7.07
2023-01-09T16:08:29.172Z,6.53
2023-01-09T16:10:58.417Z,6.80
2023-01-09T16:13:26.139Z,8.00
2023-01-09T16:15:53.043Z,7.90
2023-01-09T16:18:22.311Z,8.00
2023-01-09T16:20:49.292Z,8.38
2023-01-09T16:23:21.544Z,7.82
2023-01-09T16:28:26.630Z,7.80
2023-01-09T16:30:56.012Z,7.70
2023-01-09T16:33:24.818Z,8.65
2023-01-09T16:35:51.627Z,8.23
2023-01-09T16:38:18.110Z,8.35
2023-01-09T16:41:25.507Z,11.05
2023-01-09T16:43:52.214Z,10.25
2023-01-09T16:46:20.436Z,11.07
2023-01-09T16:48:47.593Z,10.88
2023-01-09T16:51:16.623Z,10.80
2023-01-09T16:53:43.616Z,11.77
2023-01-09T16:56:15.087Z,12.02
2023-01-09T16:58:41.582Z,12.65
2023-01-09T17:01:09.801Z,12.15
2023-01-09T17:03:36.475Z,13.63
2023-01-09T17:06:04.031Z,11.65
2023-01-09T17:08:32.707Z,11.60
2023-01-09T17:10:59.135Z,12.18
2023-01-09T17:13:25.946Z,12.85
2023-01-09T17:15:53.776Z,12.10
2023-01-09T17:18:24.979Z,11.15
2023-01-09T17:20:53.233Z,12.02
2023-01-09T17:23:20.929Z,10.73
2023-01-09T17:26:06.429Z,11.80
2023-01-09T17:28:32.824Z,10.73
2023-01-09T17:31:00.488Z,10.85
2023-01-09T17:33:27.369Z,11.02
2023-01-09T17:35:53.841Z,11.95
2023-01-09T17:38:20.303Z,11.38
2023-01-09T17:40:46.731Z,11.27
2023-01-09T17:43:13.382Z,10.98
2023-01-09T17:45:41.118Z,11.57
2023-01-09T17:48:14.825Z,10.60
2023-01-09T17:50:41.176Z,11.23
2023-01-09T17:53:07.661Z,10.80
2023-01-09T17:55:34.959Z,11.60
2023-01-09T17:58:01.388Z,10.45
2023-01-09T18:00:30.446Z,12.55
2023-01-09T18:02:57.288Z,11.00
2023-01-09T18:05:25.038Z,10.27
2023-01-09T18:07:51.579Z,10.02
2023-01-09T18:10:19.984Z,10.10
2023-01-09T18:12:54.165Z,9.77
2023-01-09T18:15:23.776Z,9.63
2023-01-09T18:17:51.567Z,12.73
2023-01-09T18:20:18.319Z,10.52
2023-01-09T18:22:44.791Z,11.38
2023-01-09T18:25:11.214Z,13.68
2023-01-09T18:27:38.023Z,12.57
2023-01-09T18:30:06.499Z,11.32
2023-01-09T18:32:33.490Z,9.73
2023-01-09T18:34:59.865Z,6.88
2023-01-09T18:37:26.337Z,6.53
2023-01-09T18:39:52.727Z,6.90
2023-01-09T18:42:19.162Z,5.10
2023-01-09T18:44:45.542Z,3.92
2023-01-09T18:47:11.970Z,5.45
2023-01-09T18:49:38.402Z,5.50
2023-01-09T18:52:07.398Z,9.43
2023-01-09T18:54:33.988Z,12.73
2023-01-09T18:57:00.370Z,13.30
2023-01-09T18:59:26.781Z,12.65
2023-01-09T19:01:53.180Z,11.05
2023-01-09T19:04:19.700Z,14.48
2023-01-09T19:06:46.126Z,11.23
2023-01-09T19:09:12.637Z,10.98
2023-01-09T19:11:39.200Z,11.27
2023-01-09T19:14:05.593Z,14.43
2023-01-09T19:16:32.054Z,10.93
2023-01-09T19:18:59.003Z,13.77
2023-01-09T19:21:26.757Z,12.45
2023-01-09T19:23:53.164Z,13.55
2023-01-09T19:26:21.660Z,13.27
2023-01-09T19:28:48.168Z,19.27
2023-01-09T19:31:14.793Z,18.55
2023-01-09T19:33:41.270Z,16.20
2023-01-09T19:36:08.190Z,19.48
2023-01-09T19:38:34.562Z,46.03
2023-01-09T19:41:17.594Z,23.02
2023-01-09T19:43:43.992Z,17.02
2023-01-09T19:46:13.713Z,12.05
2023-01-09T19:48:41.576Z,18.50
2023-01-09T19:51:08.788Z,16.25
2023-01-09T19:53:35.644Z,17.08
2023-01-09T19:56:16.664Z,23.50
2023-01-09T19:58:48.408Z,19.40
2023-01-09T20:01:16.853Z,17.05
2023-01-09T20:03:44.778Z,13.93
2023-01-09T20:06:14.231Z,11.95
2023-01-09T20:08:41.904Z,12.20
2023-01-09T20:11:08.474Z,12.25
2023-01-09T20:13:35.048Z,14.98
2023-01-09T20:16:02.248Z,17.58
2023-01-09T20:18:29.509Z,14.45
2023-01-09T20:20:58.929Z,18.33
2023-01-09T20:23:32.275Z,17.65
2023-01-09T20:26:00.030Z,16.75
2023-01-09T20:28:27.294Z,19.27
2023-01-09T20:30:53.812Z,17.75
2023-01-09T20:33:20.935Z,16.88
2023-01-09T20:35:47.399Z,18.15
2023-01-09T20:38:13.897Z,19.27
2023-01-09T20:40:43.755Z,18.00
2023-01-09T20:43:12.001Z,17.85
2023-01-09T20:45:39.256Z,18.08
2023-01-09T20:48:05.923Z,18.50
2023-01-09T20:50:33.046Z,17.35
2023-01-09T20:52:59.493Z,17.45
2023-01-09T20:55:25.944Z,17.98
2023-01-09T20:57:52.389Z,16.67
2023-01-09T21:00:18.889Z,17.27
2023-01-09T21:02:45.232Z,18.00
2023-01-09T21:05:11.602Z,17.02
2023-01-09T21:07:37.966Z,16.08
2023-01-09T21:10:04.802Z,17.58
2023-01-09T21:12:37.652Z,17.02
2023-01-09T21:15:06.289Z,17.42
2023-01-09T21:17:37.065Z,15.45
2023-01-09T21:20:05.918Z,16.67
2023-01-09T21:22:33.553Z,16.48
2023-01-09T21:24:59.951Z,14.70
2023-01-09T21:27:35.830Z,16.63
2023-01-09T21:30:03.973Z,16.73
2023-01-09T21:32:32.587Z,16.38
2023-01-09T21:35:05.102Z,15.85
2023-01-09T21:37:33.409Z,13.27
2023-01-09T21:40:00.625Z,16.52
2023-01-09T21:42:53.849Z,15.77
2023-01-09T21:45:38.699Z,15.65
2023-01-09T21:48:06.043Z,15.43
2023-01-09T21:50:33.737Z,14.80
2023-01-09T21:53:00.272Z,14.43
2023-01-09T21:55:26.748Z,14.90
2023-01-09T21:57:56.499Z,13.05
2023-01-09T22:00:23.433Z,11.65
2023-01-09T22:02:50.073Z,12.55
2023-01-09T22:05:16.459Z,11.25
2023-01-09T22:07:42.830Z,11.57
2023-01-09T22:10:09.690Z,10.55
2023-01-09T22:12:36.043Z,10.50
2023-01-09T22:15:02.529Z,10.43
2023-01-09T22:17:29.075Z,9.88
2023-01-09T22:19:55.423Z,10.50
2023-01-09T22:22:21.782Z,11.50
2023-01-09T22:24:49.731Z,11.05
2023-01-09T22:27:16.090Z,10.07
2023-01-09T22:29:42.549Z,10.73
2023-01-09T22:32:09.040Z,10.20
2023-01-09T22:34:35.424Z,10.02
2023-01-09T22:37:02.097Z,9.82
2023-01-09T22:39:28.501Z,10.25
2023-01-09T22:41:55.208Z,10.77
2023-01-09T22:44:21.741Z,10.40
2023-01-09T22:46:48.267Z,10.30
2023-01-09T22:49:14.659Z,11.60
2023-01-09T22:51:41.069Z,13.35
2023-01-09T22:54:07.470Z,10.80
2023-01-09T22:56:33.915Z,13.02
2023-01-09T22:59:00.999Z,11.65
2023-01-09T23:01:27.610Z,12.27
2023-01-09T23:03:53.983Z,12.95
2023-01-09T23:06:21.715Z,13.40
2023-01-09T23:08:53.162Z,13.13
2023-01-09T23:11:47.782Z,11.88
2023-01-09T23:14:14.157Z,11.90
2023-01-09T23:16:41.130Z,11.65
2023-01-09T23:19:16.975Z,12.07
2023-01-09T23:21:44.313Z,10.50
2023-01-09T23:24:11.542Z,10.25
2023-01-09T23:26:40.801Z,11.77
2023-01-09T23:29:07.763Z,11.70
2023-01-09T23:31:34.586Z,11.35
2023-01-09T23:34:01.057Z,12.10
2023-01-09T23:36:27.512Z,11.07
2023-01-09T23:38:53.872Z,11.00
2023-01-09T23:41:22.261Z,10.30
2023-01-09T23:43:48.623Z,10.23
2023-01-09T23:46:15.034Z,9.82
2023-01-09T23:48:41.444Z,9.90
2023-01-09T23:51:07.820Z,10.90
2023-01-09T23:53:34.225Z,11.32
2023-01-09T23:56:01.440Z,10.80
2023-01-09T23:58:27.822Z,11.18
